Time;durP1;ratioP1;P1;durP2;ratioP2;P2;SDS_P1;SDS_P2;PMS_P1;PMS_P2;Temp;Humidity;BMP_temperature;BMP_pressure;BME280_temperature;BME280_humidity;BME280_pressure;Samples;Min_cycle;Max_cycle;Signal;HPM_P1;HPM_P2
2022/01/15 00:01:35;;;;;;;3.77;3.37;;;;;;;8.31;57.38;99457.63;5069814;28;20713;-59
2022/01/15 00:04:02;;;;;;;4.80;3.83;;;;;;;8.36;57.36;99463.72;5069936;28;20204;-58
2022/01/15 00:06:29;;;;;;;5.70;4.10;;;;;;;8.39;57.54;99474.03;5069825;28;20203;-58
2022/01/15 00:08:56;;;;;;;5.87;4.17;;;;;;;8.39;57.33;99486.81;5069229;28;20203;-58
2022/01/15 00:11:24;;;;;;;5.47;3.73;;;;;;;8.40;57.59;99469.78;5069778;28;20274;-58
2022/01/15 00:13:56;;;;;;;6.53;3.80;;;;;;;8.38;57.65;99477.41;5069356;28;20281;-58
2022/01/15 00:16:32;;;;;;;7.20;4.33;;;;;;;8.37;57.91;99478.25;5069381;28;20190;-59
2022/01/15 00:19:08;;;;;;;6.90;4.10;;;;;;;8.25;58.19;99489.00;5067242;28;20259;-58
2022/01/15 00:21:35;;;;;;;5.07;4.17;;;;;;;8.34;58.03;99490.97;5067681;28;20206;-59
2022/01/15 00:24:03;;;;;;;6.00;4.10;;;;;;;8.18;58.49;99486.28;5069041;28;20214;-59
2022/01/15 00:26:32;;;;;;;4.20;3.43;;;;;;;8.21;58.70;99499.16;5066838;28;20265;-58
2022/01/15 00:28:59;;;;;;;6.00;4.10;;;;;;;8.22;58.87;99514.53;5069193;28;20223;-59
2022/01/15 00:31:26;;;;;;;5.37;4.00;;;;;;;8.18;59.33;99519.53;5076825;28;20190;-59
2022/01/15 00:33:54;;;;;;;4.53;3.90;;;;;;;8.20;58.99;99526.44;5081997;28;20208;-58
2022/01/15 00:36:21;;;;;;;5.83;4.70;;;;;;;8.17;59.28;99528.91;5081524;28;20195;-58
2022/01/15 00:38:49;;;;;;;8.13;4.50;;;;;;;8.24;59.35;99532.50;5078967;28;20581;-58
2022/01/15 00:41:17;;;;;;;4.67;4.07;;;;;;;8.17;59.69;99544.25;5081724;28;20198;-59
2022/01/15 00:43:46;;;;;;;7.03;3.73;;;;;;;8.19;59.59;99547.72;5083106;28;20400;-59
2022/01/15 00:46:13;;;;;;;5.20;4.70;;;;;;;8.19;59.53;99551.97;5072196;28;20468;-58
2022/01/15 00:48:40;;;;;;;4.27;3.60;;;;;;;8.18;59.62;99545.13;5073004;28;20995;-58
2022/01/15 00:51:07;;;;;;;4.40;4.00;;;;;;;8.18;59.53;99563.03;5073190;28;20278;-58
2022/01/15 00:53:34;;;;;;;6.60;4.37;;;;;;;8.18;59.55;99552.81;5072894;28;20222;-58
2022/01/15 00:56:01;;;;;;;5.13;3.93;;;;;;;8.14;59.73;99559.53;5072871;28;20279;-60
2022/01/15 00:58:27;;;;;;;6.37;4.37;;;;;;;8.08;59.90;99554.22;5072835;28;20203;-59
2022/01/15 01:00:56;;;;;;;5.87;4.33;;;;;;;8.12;59.79;99550.94;5072857;28;20574;-59
2022/01/15 01:03:23;;;;;;;5.60;4.17;;;;;;;8.17;59.33;99559.59;5073102;28;20201;-59
2022/01/15 01:05:50;;;;;;;4.57;3.80;;;;;;;8.18;59.24;99555.38;5072797;28;20199;-59
2022/01/15 01:08:17;;;;;;;4.80;3.33;;;;;;;8.21;59.32;99560.56;5072605;28;20290;-59
2022/01/15 01:10:56;;;;;;;4.97;3.70;;;;;;;8.17;59.13;99543.38;5072644;28;20291;-59
2022/01/15 01:24:46;;;;;;;4.10;3.30;;;;;;;8.38;57.68;99561.88;5072521;28;20617;-59
2022/01/15 01:27:18;;;;;;;7.13;3.30;;;;;;;8.42;57.56;99576.50;5072401;28;20202;-58
2022/01/15 01:30:04;;;;;;;5.43;3.67;;;;;;;8.46;57.06;99574.91;5072357;28;20724;-59
2022/01/15 01:32:47;;;;;;;4.43;4.00;;;;;;;8.47;57.10;99574.06;5071142;28;20461;-59
2022/01/15 01:35:18;;;;;;;3.87;3.40;;;;;;;8.55;56.86;99572.56;5072355;28;20441;-59
2022/01/15 01:37:50;;;;;;;5.30;3.70;;;;;;;8.44;57.13;99576.53;5072322;28;20782;-59
2022/01/15 01:40:22;;;;;;;5.83;3.43;;;;;;;8.44;56.78;99566.28;5072332;28;20290;-59
2022/01/15 01:42:59;;;;;;;5.60;3.70;;;;;;;8.43;56.92;99591.06;5071792;28;20890;-59
2022/01/15 01:45:26;;;;;;;4.40;3.63;;;;;;;8.41;57.10;99590.13;5072226;28;20221;-58
2022/01/15 01:47:54;;;;;;;4.03;3.47;;;;;;;8.37;57.23;99590.88;5072019;28;20194;-59
2022/01/15 01:50:23;;;;;;;5.43;3.37;;;;;;;8.39;57.02;99585.78;5072049;28;20282;-59
2022/01/15 01:52:52;;;;;;;4.80;3.37;;;;;;;8.34;57.16;99584.81;5071680;28;20215;-59
2022/01/15 01:55:22;;;;;;;5.03;3.73;;;;;;;8.35;57.41;99584.84;5071760;28;20203;-58
2022/01/15 01:57:50;;;;;;;4.70;3.20;;;;;;;8.26;57.65;99576.91;5071744;28;20230;-58
2022/01/15 02:00:19;;;;;;;4.57;3.53;;;;;;;8.38;57.20;99584.91;5071823;28;20198;-58
2022/01/15 02:02:47;;;;;;;4.43;3.47;;;;;;;8.32;57.73;99597.59;5071799;28;21010;-58
2022/01/15 02:05:15;;;;;;;5.80;4.00;;;;;;;8.28;58.18;99593.19;5071795;28;20975;-58
2022/01/15 02:07:43;;;;;;;3.80;3.40;;;;;;;8.17;58.46;99592.88;5071390;28;20191;-59
2022/01/15 02:10:13;;;;;;;4.80;3.50;;;;;;;8.20;58.91;99594.66;5071684;28;20747;-58
2022/01/15 02:12:40;;;;;;;4.87;4.20;;;;;;;8.24;58.51;99578.56;5071351;28;20214;-58
2022/01/15 02:15:09;;;;;;;3.20;2.90;;;;;;;8.25;58.76;99582.84;5071233;28;20232;-58
2022/01/15 02:17:36;;;;;;;5.13;3.83;;;;;;;8.24;58.95;99594.75;5071214;28;20680;-58
2022/01/15 02:20:35;;;;;;;6.03;3.93;;;;;;;8.11;59.02;99562.00;5071318;28;20289;-57
2022/01/15 02:26:02;;;;;;;4.80;3.60;;;;;;;8.27;59.42;99596.56;5009620;28;20190;-58
2022/01/15 02:28:31;;;;;;;5.80;3.80;;;;;;;8.19;59.77;99590.34;5056879;28;20227;-57
2022/01/15 02:31:00;;;;;;;4.30;3.50;;;;;;;8.12;59.73;99591.03;5071175;28;20223;-58
2022/01/15 02:33:28;;;;;;;5.43;3.90;;;;;;;8.21;60.22;99602.34;5071153;28;20222;-59
2022/01/15 02:35:56;;;;;;;6.13;4.47;;;;;;;8.10;60.58;99608.88;5071168;28;20202;-58
2022/01/15 02:38:24;;;;;;;4.70;4.20;;;;;;;8.09;60.84;99614.84;5071127;28;20201;-59
2022/01/15 02:40:51;;;;;;;5.47;4.40;;;;;;;8.08;61.04;99620.75;5070877;28;20198;-58
2022/01/15 02:43:21;;;;;;;5.53;4.97;;;;;;;8.05;61.14;99617.25;5070901;28;20195;-58
2022/01/15 02:45:54;;;;;;;5.30;4.10;;;;;;;7.98;61.59;99628.16;5071172;28;20218;-58
2022/01/15 02:48:22;;;;;;;9.03;4.30;;;;;;;7.85;61.84;99626.94;5071104;28;20202;-58
2022/01/15 02:50:49;;;;;;;4.33;3.90;;;;;;;7.83;62.02;99636.22;5070804;28;20199;-58
2022/01/15 02:53:18;;;;;;;5.70;4.27;;;;;;;7.79;62.69;99628.44;5069928;28;20261;-58
2022/01/15 02:55:47;;;;;;;5.00;4.50;;;;;;;7.68;63.23;99628.13;5070332;28;20201;-58
2022/01/15 02:58:14;;;;;;;5.43;4.10;;;;;;;7.67;63.09;99618.72;5070964;28;20199;-58
2022/01/15 03:00:41;;;;;;;5.37;4.33;;;;;;;7.67;63.52;99626.38;5070758;28;20221;-58
2022/01/15 03:03:08;;;;;;;4.87;4.13;;;;;;;7.65;63.94;99634.03;5070711;28;20282;-58
2022/01/15 03:05:35;;;;;;;5.83;4.30;;;;;;;7.63;64.01;99635.66;5070555;28;20198;-58
2022/01/15 03:08:02;;;;;;;5.87;4.30;;;;;;;7.57;64.46;99630.38;5070361;28;20194;-58
2022/01/15 03:10:31;;;;;;;7.20;4.50;;;;;;;7.52;65.02;99631.06;5070331;28;20286;-58
2022/01/15 03:12:58;;;;;;;5.43;4.57;;;;;;;7.57;65.00;99625.25;5070241;28;20221;-59
2022/01/15 03:15:25;;;;;;;5.10;4.47;;;;;;;7.52;65.20;99634.47;5070150;28;20199;-59
2022/01/15 03:17:53;;;;;;;6.00;4.30;;;;;;;7.61;65.03;99634.72;5070471;28;20198;-59
2022/01/15 03:20:21;;;;;;;4.70;4.10;;;;;;;7.52;65.21;99625.94;5070206;28;20183;-58
2022/01/15 03:22:48;;;;;;;6.83;4.13;;;;;;;7.58;65.25;99624.41;5070324;28;20664;-57
2022/01/15 03:25:16;;;;;;;5.80;4.63;;;;;;;7.60;65.38;99640.69;5070130;28;20193;-58
2022/01/15 03:27:44;;;;;;;7.70;5.27;;;;;;;7.57;65.28;99635.47;5070221;28;20236;-58
2022/01/15 03:30:13;;;;;;;6.60;4.20;;;;;;;7.69;65.21;99640.94;5070178;28;20670;-57
2022/01/15 03:32:43;;;;;;;6.97;5.45;;;;;;;7.72;65.38;99651.25;5069107;28;20820;-57
2022/01/15 03:35:12;;;;;;;6.37;5.13;;;;;;;7.86;64.63;99653.34;5070274;28;20198;-57
2022/01/15 03:37:39;;;;;;;5.33;4.77;;;;;;;7.68;65.00;99617.91;5070158;28;20708;-57
2022/01/15 03:40:08;;;;;;;6.20;5.03;;;;;;;7.81;64.78;99650.69;5070410;28;20198;-57
2022/01/15 03:42:35;;;;;;;6.50;5.10;;;;;;;7.92;64.75;99656.97;5070127;28;20661;-57
2022/01/15 03:45:05;;;;;;;6.77;5.03;;;;;;;7.91;64.93;99656.94;5070010;28;20202;-57
2022/01/15 03:47:32;;;;;;;7.47;4.97;;;;;;;7.91;64.97;99662.06;5070036;28;20198;-57
2022/01/15 03:49:59;;;;;;;5.50;4.87;;;;;;;7.86;64.96;99659.34;5070340;28;20191;-57
2022/01/15 03:52:26;;;;;;;6.97;5.17;;;;;;;7.91;65.28;99669.72;5070080;28;20201;-57
2022/01/15 03:54:53;;;;;;;5.93;5.00;;;;;;;7.89;65.35;99672.22;5069896;28;20215;-57
2022/01/15 03:57:20;;;;;;;6.83;4.63;;;;;;;7.98;64.82;99674.19;5070096;28;20194;-57
2022/01/15 03:59:46;;;;;;;7.40;5.30;;;;;;;7.98;64.81;99674.19;5069725;28;20210;-57
2022/01/15 04:02:15;;;;;;;7.63;5.23;;;;;;;8.00;64.50;99681.09;5070128;28;20270;-58
2022/01/15 04:04:42;;;;;;;6.47;4.90;;;;;;;8.02;64.40;99692.22;5070942;28;20188;-59
2022/01/15 04:07:09;;;;;;;6.23;5.17;;;;;;;8.05;64.67;99686.31;5074009;28;20205;-58
2022/01/15 04:09:36;;;;;;;8.57;5.93;;;;;;;8.11;64.20;99691.63;5073805;28;20205;-59
2022/01/15 04:12:03;;;;;;;7.93;5.43;;;;;;;8.09;64.64;99699.28;5073859;28;20295;-58
2022/01/15 04:14:30;;;;;;;8.10;5.67;;;;;;;8.08;64.46;99691.53;5073671;28;20242;-58
2022/01/15 04:16:57;;;;;;;6.70;5.63;;;;;;;8.14;64.36;99702.84;5073598;28;20570;-58
2022/01/15 04:19:27;;;;;;;7.87;5.37;;;;;;;8.09;64.51;99714.63;5073869;28;20195;-59
2022/01/15 04:21:54;;;;;;;7.33;5.47;;;;;;;8.14;64.51;99707.06;5073791;28;20195;-59
2022/01/15 04:24:21;;;;;;;9.07;5.10;;;;;;;8.09;64.28;99724.00;5073555;28;20665;-59
2022/01/15 04:26:49;;;;;;;6.97;5.60;;;;;;;8.14;64.44;99722.44;5073477;28;20195;-58
2022/01/15 04:29:16;;;;;;;7.17;5.73;;;;;;;8.18;64.17;99737.06;5073198;28;20332;-58
2022/01/15 04:31:48;;;;;;;7.37;5.67;;;;;;;8.26;63.18;99740.72;5073570;28;20195;-58
2022/01/15 04:34:17;;;;;;;7.53;5.20;;;;;;;8.25;62.88;99751.75;5073230;28;20284;-58
2022/01/15 04:36:46;;;;;;;6.97;5.93;;;;;;;8.09;62.99;99719.75;5073500;28;20199;-59
2022/01/15 04:39:13;;;;;;;8.20;5.97;;;;;;;8.29;62.59;99754.47;5073669;28;20918;-58
2022/01/15 04:41:40;;;;;;;6.60;5.60;;;;;;;8.26;62.97;99748.41;5073444;28;20927;-58
2022/01/15 04:44:07;;;;;;;9.70;5.80;;;;;;;8.31;62.81;99754.53;5073219;28;20313;-58
2022/01/15 04:46:36;;;;;;;10.40;6.20;;;;;;;8.35;62.71;99764.03;5073171;28;20309;-59
2022/01/15 04:49:03;;;;;;;8.47;6.37;;;;;;;8.36;62.64;99762.34;5072950;28;20194;-59
2022/01/15 04:51:30;;;;;;;7.47;6.47;;;;;;;8.38;62.13;99766.69;5072808;28;20198;-59
2022/01/15 04:53:58;;;;;;;8.30;5.77;;;;;;;8.46;62.21;99787.41;5072933;28;20223;-59
2022/01/15 04:56:26;;;;;;;10.00;6.73;;;;;;;8.41;62.41;99787.25;5072830;28;20201;-59
2022/01/15 04:58:53;;;;;;;9.00;6.53;;;;;;;8.44;62.57;99791.59;5072722;28;20190;-58
2022/01/15 05:01:19;;;;;;;10.97;6.07;;;;;;;8.50;62.13;99802.91;5059302;28;20254;-59
2022/01/15 05:03:46;;;;;;;7.27;6.00;;;;;;;8.41;62.09;99805.19;5052806;28;20322;-59
2022/01/15 05:06:13;;;;;;;9.07;6.73;;;;;;;8.43;62.64;99824.03;5052724;28;20621;-59
2022/01/15 05:08:42;;;;;;;8.73;6.23;;;;;;;8.45;62.85;99821.50;5053204;28;20669;-59
2022/01/15 05:11:20;;;;;;;8.17;6.20;;;;;;;8.47;62.78;99832.66;5072537;28;20287;-59
2022/01/15 05:13:49;;;;;;;10.27;7.57;;;;;;;8.42;63.15;99827.41;5072482;28;20272;-60
2022/01/15 05:16:16;;;;;;;10.07;7.33;;;;;;;8.43;63.05;99834.28;5071727;28;20205;-60
2022/01/15 05:18:43;;;;;;;10.47;6.90;;;;;;;8.47;62.67;99827.53;5072279;28;20196;-60
2022/01/15 05:21:10;;;;;;;10.67;7.73;;;;;;;8.48;62.61;99834.41;5072421;28;20335;-59
2022/01/15 05:23:37;;;;;;;10.20;7.70;;;;;;;8.44;62.85;99825.75;5054001;28;20195;-59
2022/01/15 05:26:04;;;;;;;10.33;7.73;;;;;;;8.43;63.01;99835.97;5052547;28;20195;-59
2022/01/15 05:28:32;;;;;;;11.37;8.30;;;;;;;8.37;63.29;99849.44;5052186;28;20232;-59
2022/01/15 05:30:59;;;;;;;13.37;8.70;;;;;;;8.31;63.43;99844.13;5051990;28;20196;-59
2022/01/15 05:33:26;;;;;;;11.73;9.03;;;;;;;8.35;63.87;99852.78;5052317;28;20220;-59
2022/01/15 05:35:53;;;;;;;10.57;8.53;;;;;;;8.41;63.69;99856.38;5052119;28;20196;-59
2022/01/15 05:38:19;;;;;;;12.37;8.47;;;;;;;8.42;63.31;99855.56;5052169;28;20318;-59
2022/01/15 05:40:46;;;;;;;11.93;8.53;;;;;;;8.48;63.23;99868.56;5052225;28;20200;-58
2022/01/15 05:43:13;;;;;;;13.60;8.97;;;;;;;8.53;62.96;99874.69;5052219;28;20283;-59
2022/01/15 05:45:42;;;;;;;12.33;9.03;;;;;;;8.58;63.04;99878.25;5051961;28;20207;-58
2022/01/15 05:48:08;;;;;;;12.87;8.93;;;;;;;8.66;62.72;99883.59;5051899;28;20576;-58
2022/01/15 05:50:35;;;;;;;14.43;9.20;;;;;;;8.68;62.45;99877.69;5051773;28;20283;-58
2022/01/15 05:53:02;;;;;;;11.33;8.63;;;;;;;8.72;62.36;99887.22;5052124;28;20199;-58
2022/01/15 05:55:29;;;;;;;14.80;9.37;;;;;;;8.75;62.67;99891.56;5051904;28;20599;-59
2022/01/15 05:57:56;;;;;;;14.27;9.50;;;;;;;8.75;63.01;99895.00;5051943;28;20191;-58
2022/01/15 06:00:23;;;;;;;15.80;9.93;;;;;;;8.72;62.56;99894.03;5051719;28;20275;-58
2022/01/15 06:02:51;;;;;;;14.27;9.27;;;;;;;8.78;62.37;99891.66;5051792;28;20188;-59
2022/01/15 06:05:18;;;;;;;14.70;10.17;;;;;;;8.80;62.29;99901.13;5051701;28;20195;-59
2022/01/15 06:07:45;;;;;;;16.33;10.47;;;;;;;8.75;62.19;99907.81;5055801;28;20199;-59
2022/01/15 06:10:13;;;;;;;12.80;8.13;;;;;;;8.75;62.59;99918.06;5071412;28;20706;-58
2022/01/15 06:12:44;;;;;;;13.47;8.93;;;;;;;8.76;61.95;99927.47;5071299;28;20195;-58
2022/01/15 06:15:12;;;;;;;12.90;9.53;;;;;;;8.70;62.42;99935.00;5068856;28;20700;-57
2022/01/15 06:17:39;;;;;;;13.33;8.93;;;;;;;8.71;61.94;99938.41;5068470;28;20203;-58
2022/01/15 06:20:10;;;;;;;14.17;9.20;;;;;;;8.63;61.12;99933.03;5067917;28;20280;-58
2022/01/15 06:22:37;;;;;;;12.73;9.23;;;;;;;8.61;61.40;99939.81;5070858;28;20204;-57
2022/01/15 06:25:05;;;;;;;15.20;9.97;;;;;;;8.60;61.36;99943.19;5070955;28;20188;-58
2022/01/15 06:27:33;;;;;;;11.17;8.83;;;;;;;8.54;61.66;99948.13;5071048;28;20322;-58
2022/01/15 06:30:00;;;;;;;13.27;10.23;;;;;;;8.47;62.03;99956.44;5071088;28;20195;-58
2022/01/15 06:32:28;;;;;;;12.13;8.43;;;;;;;8.30;62.07;99922.63;5071282;28;20191;-57
2022/01/15 06:34:56;;;;;;;15.52;10.95;;;;;;;8.56;61.94;99968.66;5070273;28;20446;-58
2022/01/15 06:37:24;;;;;;;11.93;8.80;;;;;;;8.61;61.55;99965.44;5070864;28;20198;-58
2022/01/15 06:39:51;;;;;;;14.97;9.90;;;;;;;8.68;61.06;99961.38;5070953;28;20196;-57
2022/01/15 06:42:18;;;;;;;15.73;9.43;;;;;;;8.66;61.12;99970.69;5070966;28;20195;-57
2022/01/15 06:44:44;;;;;;;13.87;9.50;;;;;;;8.68;60.82;99972.47;5070469;28;20270;-57
2022/01/15 06:47:11;;;;;;;11.17;8.47;;;;;;;8.70;60.67;99980.22;5070581;28;20205;-56
2022/01/15 06:49:39;;;;;;;14.70;9.57;;;;;;;8.69;61.09;99975.91;5070725;28;20195;-57
2022/01/15 06:52:06;;;;;;;14.02;10.13;;;;;;;8.71;61.06;99980.25;5069935;28;20441;-57
2022/01/15 06:54:34;;;;;;;14.37;9.53;;;;;;;8.76;60.90;99988.09;5070347;28;20258;-57
2022/01/15 06:57:01;;;;;;;11.87;9.07;;;;;;;8.78;60.57;99989.00;5070032;28;20188;-57
2022/01/15 06:59:28;;;;;;;18.43;10.43;;;;;;;8.69;60.90;99997.28;5078237;28;20202;-56
2022/01/15 07:01:55;;;;;;;14.33;9.60;;;;;;;8.68;61.17;100000.66;5072838;28;20179;-57
2022/01/15 07:04:22;;;;;;;13.70;10.33;;;;;;;8.72;60.75;100012.75;5075509;28;20194;-57
2022/01/15 07:06:49;;;;;;;14.60;10.00;;;;;;;8.69;61.10;100012.66;5076148;28;20290;-56
2022/01/15 07:09:16;;;;;;;15.50;9.30;;;;;;;8.73;60.65;100011.06;5080017;28;20201;-57
2022/01/15 07:11:44;;;;;;;15.47;9.80;;;;;;;8.72;60.79;100023.00;5075169;28;20562;-57
2022/01/15 07:14:11;;;;;;;12.57;9.03;;;;;;;8.70;61.07;100029.78;5069452;28;20224;-57
2022/01/15 07:16:38;;;;;;;17.07;10.90;;;;;;;8.72;61.06;100032.38;5072860;28;20191;-57
2022/01/15 07:19:05;;;;;;;15.40;9.87;;;;;;;8.79;60.89;100031.72;5072214;28;20191;-57
2022/01/15 07:21:32;;;;;;;12.63;9.20;;;;;;;8.84;60.66;100033.63;5069825;28;20191;-57
2022/01/15 07:23:59;;;;;;;13.10;9.30;;;;;;;8.86;60.39;100032.00;5070061;28;20225;-59
2022/01/15 07:26:26;;;;;;;10.67;9.37;;;;;;;8.83;60.15;100034.44;5069993;28;20195;-60
2022/01/15 07:28:54;;;;;;;14.23;9.80;;;;;;;8.84;60.12;100043.88;5069778;28;20239;-57
2022/01/15 07:31:21;;;;;;;15.90;9.67;;;;;;;8.81;60.21;100043.78;5070130;28;20195;-57
2022/01/15 07:33:48;;;;;;;12.50;9.57;;;;;;;8.79;60.55;100054.78;5069938;28;20195;-57
2022/01/15 07:36:17;;;;;;;15.83;9.53;;;;;;;8.84;60.34;100060.94;5069021;28;20266;-57
2022/01/15 07:38:44;;;;;;;12.90;9.70;;;;;;;8.82;60.40;100058.31;5069257;28;20673;-59
2022/01/15 07:41:13;;;;;;;13.93;9.70;;;;;;;8.86;60.24;100069.56;5066449;28;20195;-60
2022/01/15 07:43:42;;;;;;;13.90;11.27;;;;;;;8.95;60.51;100076.66;5068832;28;21137;-59
2022/01/15 07:46:10;;;;;;;15.43;10.33;;;;;;;8.99;60.02;100081.94;5069327;28;20184;-60
2022/01/15 07:48:37;;;;;;;17.33;9.93;;;;;;;9.06;60.37;100076.19;5069108;28;20559;-59
2022/01/15 07:51:04;;;;;;;14.87;9.67;;;;;;;9.10;60.32;100078.00;5069024;28;20187;-59
2022/01/15 07:53:31;;;;;;;17.30;11.43;;;;;;;9.12;60.20;100080.63;5069562;28;20618;-60
2022/01/15 07:55:58;;;;;;;28.70;12.33;;;;;;;9.05;60.41;100087.25;5068906;28;20215;-59
2022/01/15 07:58:25;;;;;;;17.17;10.30;;;;;;;9.06;60.49;100090.69;5068920;28;20198;-59
2022/01/15 08:00:52;;;;;;;16.77;10.10;;;;;;;9.12;60.20;100085.75;5069348;28;20282;-58
2022/01/15 08:03:21;;;;;;;12.20;9.73;;;;;;;9.13;60.17;100103.75;5068074;28;20195;-58
2022/01/15 08:05:48;;;;;;;17.43;10.07;;;;;;;9.13;59.71;100097.75;5069400;28;20225;-59
2022/01/15 08:08:15;;;;;;;14.53;9.90;;;;;;;9.15;59.64;100096.97;5055031;28;20307;-59
2022/01/15 08:10:42;;;;;;;20.67;10.70;;;;;;;9.19;59.59;100115.88;5049627;28;20250;-58
2022/01/15 08:13:09;;;;;;;16.67;11.73;;;;;;;9.21;59.58;100121.91;5049395;28;20279;-59
2022/01/15 08:15:36;;;;;;;19.23;11.97;;;;;;;9.23;59.97;100120.31;5049537;28;20231;-59
2022/01/15 08:18:04;;;;;;;14.73;10.77;;;;;;;9.21;59.40;100133.06;5049542;28;20206;-59
2022/01/15 08:20:32;;;;;;;19.40;12.50;;;;;;;9.24;60.05;100134.84;5049589;28;20900;-59
2022/01/15 08:22:59;;;;;;;20.07;14.97;;;;;;;9.24;60.55;100135.72;5049440;28;20192;-59
2022/01/15 08:25:27;;;;;;;22.87;16.50;;;;;;;9.15;60.82;100142.22;5049500;28;20192;-59
2022/01/15 08:27:54;;;;;;;23.20;15.93;;;;;;;9.11;61.34;100135.28;5052113;28;20314;-59
2022/01/15 08:30:23;;;;;;;17.33;12.80;;;;;;;9.25;60.28;100136.59;5069462;28;20197;-59
2022/01/15 08:32:50;;;;;;;19.47;12.47;;;;;;;9.27;60.48;100134.94;5069511;28;20191;-59
2022/01/15 08:35:17;;;;;;;18.77;12.93;;;;;;;9.22;60.68;100134.81;5069294;28;20229;-58
2022/01/15 08:37:45;;;;;;;19.57;12.53;;;;;;;9.30;60.41;100140.16;5069249;28;20286;-59
2022/01/15 08:40:14;;;;;;;19.93;13.03;;;;;;;9.30;60.04;100138.47;5069097;28;20244;-59
2022/01/15 08:42:42;;;;;;;23.53;13.83;;;;;;;9.38;60.07;100154.97;5068943;28;20205;-59
2022/01/15 08:45:10;;;;;;;34.17;13.53;;;;;;;9.38;59.93;100152.41;5069172;28;20194;-57
2022/01/15 08:47:38;;;;;;;18.47;12.87;;;;;;;9.42;59.69;100155.94;5068175;28;20188;-57
2022/01/15 08:50:05;;;;;;;16.77;12.43;;;;;;;9.42;59.63;100154.22;5068465;28;20279;-57
2022/01/15 08:52:32;;;;;;;22.10;12.53;;;;;;;9.43;59.52;100155.09;5069869;28;20200;-57
2022/01/15 08:55:01;;;;;;;23.67;13.90;;;;;;;9.52;59.29;100163.09;5071673;28;20572;-58
2022/01/15 08:57:28;;;;;;;24.90;14.30;;;;;;;9.58;59.76;100160.72;5072410;28;20183;-57
2022/01/15 08:59:55;;;;;;;17.80;13.07;;;;;;;9.63;59.45;100156.59;5072290;28;20202;-57
2022/01/15 09:02:22;;;;;;;22.43;13.70;;;;;;;9.69;59.50;100153.34;5072003;28;20298;-57
2022/01/15 09:04:49;;;;;;;23.30;13.97;;;;;;;9.71;59.43;100156.81;5072097;28;20199;-57
2022/01/15 09:07:16;;;;;;;23.60;14.40;;;;;;;9.78;59.37;100159.63;5071998;28;20202;-57
2022/01/15 09:09:44;;;;;;;23.10;13.97;;;;;;;9.80;59.45;100152.84;5071789;28;20617;-57
2022/01/15 09:12:12;;;;;;;20.45;15.95;;;;;;;9.92;59.41;100152.31;5070934;28;20933;-60
2022/01/15 09:14:39;;;;;;;18.40;14.43;;;;;;;10.06;59.24;100151.91;5071714;28;20295;-60
2022/01/15 09:17:07;;;;;;;25.53;15.07;;;;;;;10.00;59.17;100154.28;5071648;28;20660;-59
2022/01/15 09:19:34;;;;;;;24.07;15.80;;;;;;;9.93;59.21;100149.81;5071901;28;20194;-59
2022/01/15 09:22:05;;;;;;;17.27;14.20;;;;;;;9.91;59.32;100153.16;5069315;28;20314;-60
2022/01/15 09:24:32;;;;;;;22.50;14.63;;;;;;;9.91;59.14;100159.19;5072197;28;20574;-59
2022/01/15 09:30:12;;;;;;;21.80;15.63;;;;;;;9.89;59.57;100163.38;5071802;28;20456;-60
2022/01/15 09:32:36;;;;;;;19.27;13.23;;;;;;;9.94;59.58;100164.38;5071831;28;20229;-59
2022/01/15 09:35:03;;;;;;;22.07;14.27;;;;;;;9.97;59.36;100155.91;5071973;28;20219;-58
2022/01/15 09:37:30;;;;;;;21.53;13.57;;;;;;;9.96;59.26;100154.16;5072128;28;20286;-58
2022/01/15 09:39:57;;;;;;;18.40;13.03;;;;;;;9.96;58.99;100152.47;5071892;28;20191;-58
2022/01/15 09:42:25;;;;;;;16.30;12.53;;;;;;;10.01;59.12;100147.47;5071737;28;20191;-58
2022/01/15 09:44:54;;;;;;;20.00;13.03;;;;;;;10.09;58.95;100145.97;5071652;28;20195;-58
2022/01/15 09:47:22;;;;;;;20.33;13.27;;;;;;;10.14;58.87;100130.72;5071612;28;20690;-58
2022/01/15 09:49:50;;;;;;;27.10;14.47;;;;;;;10.31;58.93;100132.06;5071684;28;20298;-58
2022/01/15 09:52:18;;;;;;;20.97;14.43;;;;;;;10.37;58.43;100139.94;5072082;28;20187;-57
2022/01/15 09:54:45;;;;;;;25.00;14.47;;;;;;;10.35;58.38;100137.34;5071465;28;20203;-58
2022/01/15 09:57:12;;;;;;;21.97;13.77;;;;;;;10.34;57.71;100137.28;5071446;28;20263;-58
2022/01/15 09:59:39;;;;;;;20.33;13.37;;;;;;;10.42;58.20;100130.66;5071411;28;20278;-58
2022/01/15 10:02:08;;;;;;;19.87;14.30;;;;;;;10.47;58.04;100134.22;5071154;28;20196;-58
2022/01/15 10:04:35;;;;;;;22.23;14.23;;;;;;;10.42;57.68;100125.53;5071207;28;20208;-58
2022/01/15 10:07:11;;;;;;;25.83;14.60;;;;;;;10.38;58.19;100128.88;5071384;28;20214;-58
2022/01/15 10:09:39;;;;;;;21.87;14.37;;;;;;;10.37;58.46;100122.84;5071912;28;20747;-58
2022/01/15 10:12:07;;;;;;;28.47;14.33;;;;;;;10.44;58.57;100117.03;5071270;28;20183;-58
2022/01/15 10:14:36;;;;;;;18.93;13.73;;;;;;;10.50;58.47;100129.16;5071119;28;20713;-59
2022/01/15 10:17:18;;;;;;;18.97;13.40;;;;;;;10.59;57.33;100117.44;5071284;28;20200;-59
2022/01/15 10:19:47;;;;;;;17.37;12.93;;;;;;;10.56;57.41;100114.78;5070532;28;20200;-59
2022/01/15 10:22:16;;;;;;;19.30;14.05;;;;;;;10.52;57.04;100104.41;5065712;28;20443;-60
2022/01/15 10:24:44;;;;;;;16.90;13.17;;;;;;;10.66;57.44;100105.59;5050983;28;20199;-59
2022/01/15 10:27:19;;;;;;;16.53;12.23;;;;;;;10.55;56.93;100099.31;5050941;28;20196;-58
2022/01/15 10:29:51;;;;;;;17.47;12.97;;;;;;;10.65;57.19;100093.63;5050975;28;20278;-59
2022/01/15 10:32:18;;;;;;;16.27;13.13;;;;;;;10.48;57.59;100100.00;5068987;28;20184;-59
2022/01/15 10:34:47;;;;;;;16.40;12.77;;;;;;;10.58;57.39;100099.41;5070316;28;20275;-60
2022/01/15 10:37:16;;;;;;;16.27;11.77;;;;;;;10.58;57.28;100094.25;5070309;28;20184;-57
2022/01/15 10:39:58;;;;;;;17.03;11.20;;;;;;;10.64;56.77;100102.13;5070363;28;20192;-59
2022/01/15 10:42:26;;;;;;;18.80;10.77;;;;;;;10.53;56.42;100083.00;5070276;28;20286;-59
2022/01/15 10:44:55;;;;;;;15.03;11.50;;;;;;;10.53;56.23;100094.16;5069947;28;20222;-59
2022/01/15 10:47:25;;;;;;;17.40;11.87;;;;;;;10.52;56.74;100089.00;5069389;28;20202;-59
2022/01/15 10:49:59;;;;;;;14.70;11.70;;;;;;;10.49;56.48;100079.47;5069840;28;20198;-59
2022/01/15 10:52:27;;;;;;;15.20;11.20;;;;;;;10.48;56.33;100085.47;5069158;28;20188;-59
2022/01/15 10:55:06;;;;;;;15.90;11.73;;;;;;;10.47;56.79;100068.31;5069692;28;20645;-59
2022/01/15 10:57:36;;;;;;;20.87;12.00;;;;;;;10.61;56.33;100071.22;5068819;28;20187;-59
2022/01/15 11:00:20;;;;;;;16.23;12.13;;;;;;;10.73;55.55;100075.81;5064663;28;20498;-60
2022/01/15 11:02:49;;;;;;;16.80;12.20;;;;;;;10.91;55.15;100060.81;5067675;28;20187;-59
2022/01/15 11:05:32;;;;;;;15.67;11.50;;;;;;;11.01;54.56;100067.94;5070112;28;20179;-59
2022/01/15 11:08:20;;;;;;;15.37;12.03;;;;;;;11.10;54.69;100075.84;5069165;28;20251;-59
2022/01/15 11:10:51;;;;;;;17.97;12.10;;;;;;;11.11;54.43;100062.16;5064145;28;20192;-59
2022/01/15 11:13:21;;;;;;;20.10;12.83;;;;;;;11.15;54.18;100059.69;5069636;28;20195;-59
2022/01/15 11:15:50;;;;;;;19.17;13.37;;;;;;;11.27;53.80;100070.25;5069712;28;20225;-59
2022/01/15 11:18:24;;;;;;;19.33;12.53;;;;;;;11.26;53.17;100065.94;5070071;28;20188;-59
2022/01/15 11:20:54;;;;;;;16.57;13.07;;;;;;;11.21;52.89;100054.69;5069245;28;20539;-59
2022/01/15 11:23:23;;;;;;;14.47;10.63;;;;;;;11.12;53.17;100066.47;5069569;28;20195;-59
2022/01/15 11:25:51;;;;;;;15.87;12.23;;;;;;;11.03;52.52;100066.25;5069748;28;20669;-59
2022/01/15 11:28:20;;;;;;;13.60;11.00;;;;;;;11.07;53.17;100063.78;5069739;28;20227;-59
2022/01/15 11:30:49;;;;;;;13.93;10.47;;;;;;;11.11;52.81;100063.03;5069576;28;20184;-59
2022/01/15 11:33:21;;;;;;;17.03;12.30;;;;;;;11.19;53.09;100063.19;5069130;28;20317;-59
2022/01/15 11:35:48;;;;;;;16.73;12.13;;;;;;;11.07;53.09;100039.81;5069430;28;20785;-58
2022/01/15 11:38:44;;;;;;;15.57;11.27;;;;;;;11.31;52.53;100057.47;5069462;28;20275;-59
2022/01/15 11:41:40;;;;;;;18.80;11.57;;;;;;;11.40;52.68;100055.13;5069854;28;20200;-59
2022/01/15 11:44:13;;;;;;;17.97;11.60;;;;;;;11.33;52.10;100054.09;5070318;28;20941;-59
2022/01/15 11:46:42;;;;;;;11.63;9.70;;;;;;;11.37;51.70;100050.75;5069902;28;20187;-59
2022/01/15 11:49:38;;;;;;;11.73;8.93;;;;;;;11.51;50.78;100046.75;5069672;28;20180;-58
2022/01/15 11:52:42;;;;;;;14.77;9.77;;;;;;;11.62;50.45;100052.16;5069908;28;20542;-58
2022/01/15 11:55:24;;;;;;;11.95;9.10;;;;;;;11.65;50.24;100055.66;5068103;28;20432;-60